sensor_id;sensor_type;location;lat;lon;timestamp;temperature;humidity
18173;DHT22;9211;48.818;9.312;2023-02-28T00:01:30;0.80;99.90
18173;DHT22;9211;48.818;9.312;2023-02-28T00:03:57;0.70;99.90
18173;DHT22;9211;48.818;9.312;2023-02-28T00:06:24;0.60;99.90
18173;DHT22;9211;48.818;9.312;2023-02-28T00:08:51;0.60;99.90
18173;DHT22;9211;48.818;9.312;2023-02-28T00:11:18;0.50;99.90
18173;DHT22;9211;48.818;9.312;2023-02-28T00:13:46;0.50;99.90
18173;DHT22;9211;48.818;9.312;2023-02-28T00:16:16;0.60;99.90
18173;DHT22;9211;48.818;9.312;2023-02-28T00:18:44;0.60;99.90
18173;DHT22;9211;48.818;9.312;2023-02-28T00:21:13;0.60;99.90
18173;DHT22;9211;48.818;9.312;2023-02-28T00:23:40;0.50;99.90
18173;DHT22;9211;48.818;9.312;2023-02-28T00:26:07;0.50;99.90
18173;DHT22;9211;48.818;9.312;2023-02-28T00:28:36;0.50;99.90
18173;DHT22;9211;48.818;9.312;2023-02-28T00:31:03;0.50;99.90
18173;DHT22;9211;48.818;9.312;2023-02-28T00:33:32;0.50;99.90
18173;DHT22;9211;48.818;9.312;2023-02-28T00:36:04;0.50;99.90
18173;DHT22;9211;48.818;9.312;2023-02-28T00:38:31;0.40;99.90
18173;DHT22;9211;48.818;9.312;2023-02-28T00:41:00;0.40;99.90
18173;DHT22;9211;48.818;9.312;2023-02-28T00:43:31;0.40;99.90
18173;DHT22;9211;48.818;9.312;2023-02-28T00:45:58;0.30;99.90
18173;DHT22;9211;48.818;9.312;2023-02-28T00:48:25;0.40;99.90
18173;DHT22;9211;48.818;9.312;2023-02-28T00:50:54;0.40;99.90
18173;DHT22;9211;48.818;9.312;2023-02-28T00:53:21;0.40;99.90
18173;DHT22;9211;48.818;9.312;2023-02-28T00:55:48;0.40;99.90
18173;DHT22;9211;48.818;9.312;2023-02-28T00:58:15;0.30;99.90
18173;DHT22;9211;48.818;9.312;2023-02-28T01:00:42;0.30;99.90
18173;DHT22;9211;48.818;9.312;2023-02-28T01:03:15;0.20;99.90
18173;DHT22;9211;48.818;9.312;2023-02-28T01:05:42;0.20;99.90
18173;DHT22;9211;48.818;9.312;2023-02-28T01:08:11;0.10;99.90
18173;DHT22;9211;48.818;9.312;2023-02-28T01:10:38;0.10;99.90
18173;DHT22;9211;48.818;9.312;2023-02-28T01:13:05;0.20;99.90
18173;DHT22;9211;48.818;9.312;2023-02-28T01:15:36;0.10;99.90
18173;DHT22;9211;48.818;9.312;2023-02-28T01:18:04;0.20;99.90
18173;DHT22;9211;48.818;9.312;2023-02-28T01:20:31;0.20;99.90
18173;DHT22;9211;48.818;9.312;2023-02-28T01:22:58;0.20;99.90
18173;DHT22;9211;48.818;9.312;2023-02-28T01:25:28;0.20;99.90
18173;DHT22;9211;48.818;9.312;2023-02-28T01:27:55;0.20;99.90
18173;DHT22;9211;48.818;9.312;2023-02-28T01:30:22;0.20;99.90
18173;DHT22;9211;48.818;9.312;2023-02-28T01:32:49;0.10;99.90
18173;DHT22;9211;48.818;9.312;2023-02-28T01:35:19;0.10;99.90
18173;DHT22;9211;48.818;9.312;2023-02-28T01:37:46;0.10;99.90
18173;DHT22;9211;48.818;9.312;2023-02-28T01:40:14;0.10;99.90
18173;DHT22;9211;48.818;9.312;2023-02-28T01:42:42;0.10;99.90
18173;DHT22;9211;48.818;9.312;2023-02-28T01:45:27;0.10;99.90
18173;DHT22;9211;48.818;9.312;2023-02-28T01:47:58;0.00;99.90
18173;DHT22;9211;48.818;9.312;2023-02-28T01:50:29;0.00;99.90
18173;DHT22;9211;48.818;9.312;2023-02-28T01:53:01;-0.10;99.90
18173;DHT22;9211;48.818;9.312;2023-02-28T01:55:32;-0.10;99.90
18173;DHT22;9211;48.818;9.312;2023-02-28T01:58:02;-0.10;99.90
18173;DHT22;9211;48.818;9.312;2023-02-28T02:00:32;-0.20;99.90
18173;DHT22;9211;48.818;9.312;2023-02-28T02:03:01;-0.20;99.90
18173;DHT22;9211;48.818;9.312;2023-02-28T02:05:31;-0.20;99.90
18173;DHT22;9211;48.818;9.312;2023-02-28T02:08:03;-0.20;99.90
18173;DHT22;9211;48.818;9.312;2023-02-28T02:10:33;-0.30;99.90
18173;DHT22;9211;48.818;9.312;2023-02-28T02:13:16;-0.20;99.90
18173;DHT22;9211;48.818;9.312;2023-02-28T02:15:53;-0.20;99.90
18173;DHT22;9211;48.818;9.312;2023-02-28T02:18:33;-0.20;99.90
18173;DHT22;9211;48.818;9.312;2023-02-28T02:24:50;-0.10;99.90
18173;DHT22;9211;48.818;9.312;2023-02-28T02:27:27;0.00;99.90
18173;DHT22;9211;48.818;9.312;2023-02-28T02:30:20;0.00;99.90
18173;DHT22;9211;48.818;9.312;2023-02-28T02:33:03;0.00;99.90
18173;DHT22;9211;48.818;9.312;2023-02-28T02:35:40;0.00;99.90
18173;DHT22;9211;48.818;9.312;2023-02-28T02:38:13;0.00;99.90
18173;DHT22;9211;48.818;9.312;2023-02-28T02:40:50;0.00;99.90
18173;DHT22;9211;48.818;9.312;2023-02-28T02:43:25;0.00;99.90
18173;DHT22;9211;48.818;9.312;2023-02-28T02:45:57;0.10;99.90
18173;DHT22;9211;48.818;9.312;2023-02-28T02:48:29;0.10;99.90
18173;DHT22;9211;48.818;9.312;2023-02-28T02:51:00;0.10;99.90
18173;DHT22;9211;48.818;9.312;2023-02-28T02:53:31;0.20;99.90
18173;DHT22;9211;48.818;9.312;2023-02-28T02:56:01;0.20;99.90
18173;DHT22;9211;48.818;9.312;2023-02-28T02:58:35;0.20;99.90
18173;DHT22;9211;48.818;9.312;2023-02-28T03:03:36;0.20;99.90
18173;DHT22;9211;48.818;9.312;2023-02-28T03:06:05;0.20;99.90
18173;DHT22;9211;48.818;9.312;2023-02-28T03:08:34;0.20;99.90
18173;DHT22;9211;48.818;9.312;2023-02-28T03:11:03;0.20;99.90
18173;DHT22;9211;48.818;9.312;2023-02-28T03:13:49;0.20;99.90
18173;DHT22;9211;48.818;9.312;2023-02-28T03:16:30;0.20;99.90
18173;DHT22;9211;48.818;9.312;2023-02-28T03:19:12;0.30;99.90
18173;DHT22;9211;48.818;9.312;2023-02-28T03:21:55;0.30;99.90
18173;DHT22;9211;48.818;9.312;2023-02-28T03:24:29;0.30;99.90
18173;DHT22;9211;48.818;9.312;2023-02-28T03:27:05;0.40;99.90
18173;DHT22;9211;48.818;9.312;2023-02-28T03:29:35;0.40;99.90
18173;DHT22;9211;48.818;9.312;2023-02-28T03:32:08;0.40;99.90
18173;DHT22;9211;48.818;9.312;2023-02-28T03:34:43;0.50;99.90
18173;DHT22;9211;48.818;9.312;2023-02-28T03:37:20;0.50;99.90
18173;DHT22;9211;48.818;9.312;2023-02-28T03:39:53;0.50;99.90
18173;DHT22;9211;48.818;9.312;2023-02-28T03:42:24;0.50;99.90
18173;DHT22;9211;48.818;9.312;2023-02-28T03:44:55;0.50;99.90
18173;DHT22;9211;48.818;9.312;2023-02-28T03:47:26;0.60;99.90
18173;DHT22;9211;48.818;9.312;2023-02-28T03:49:57;0.60;99.90
18173;DHT22;9211;48.818;9.312;2023-02-28T03:52:28;0.70;99.90
18173;DHT22;9211;48.818;9.312;2023-02-28T03:55:02;0.60;99.90
18173;DHT22;9211;48.818;9.312;2023-02-28T03:57:35;0.60;99.90
18173;DHT22;9211;48.818;9.312;2023-02-28T04:00:07;0.60;99.90
18173;DHT22;9211;48.818;9.312;2023-02-28T04:02:38;0.60;99.90
18173;DHT22;9211;48.818;9.312;2023-02-28T04:05:06;0.60;99.90
18173;DHT22;9211;48.818;9.312;2023-02-28T04:07:34;0.70;99.90
18173;DHT22;9211;48.818;9.312;2023-02-28T04:10:04;0.60;99.90
18173;DHT22;9211;48.818;9.312;2023-02-28T04:12:31;0.60;99.90
18173;DHT22;9211;48.818;9.312;2023-02-28T04:14:58;0.70;99.90
18173;DHT22;9211;48.818;9.312;2023-02-28T04:17:25;0.70;99.90
18173;DHT22;9211;48.818;9.312;2023-02-28T04:19:52;0.70;99.90
18173;DHT22;9211;48.818;9.312;2023-02-28T04:22:22;0.60;99.90
18173;DHT22;9211;48.818;9.312;2023-02-28T04:24:52;0.60;99.90
18173;DHT22;9211;48.818;9.312;2023-02-28T04:27:20;0.60;99.90
18173;DHT22;9211;48.818;9.312;2023-02-28T04:29:47;0.70;99.90
18173;DHT22;9211;48.818;9.312;2023-02-28T04:32:14;0.70;99.90
18173;DHT22;9211;48.818;9.312;2023-02-28T04:34:41;0.70;99.90
18173;DHT22;9211;48.818;9.312;2023-02-28T04:37:08;0.70;99.90
18173;DHT22;9211;48.818;9.312;2023-02-28T04:39:35;0.70;99.90
18173;DHT22;9211;48.818;9.312;2023-02-28T04:42:04;0.60;99.90
18173;DHT22;9211;48.818;9.312;2023-02-28T04:44:31;0.70;99.90
18173;DHT22;9211;48.818;9.312;2023-02-28T04:46:58;0.70;99.90
18173;DHT22;9211;48.818;9.312;2023-02-28T04:49:25;0.70;99.90
18173;DHT22;9211;48.818;9.312;2023-02-28T04:51:52;0.70;99.90
18173;DHT22;9211;48.818;9.312;2023-02-28T04:54:19;0.70;99.90
18173;DHT22;9211;48.818;9.312;2023-02-28T04:56:46;0.70;99.90
18173;DHT22;9211;48.818;9.312;2023-02-28T04:59:17;0.70;99.90
18173;DHT22;9211;48.818;9.312;2023-02-28T05:01:46;0.70;99.90
18173;DHT22;9211;48.818;9.312;2023-02-28T05:04:13;0.70;99.90
18173;DHT22;9211;48.818;9.312;2023-02-28T05:06:40;0.80;99.90
18173;DHT22;9211;48.818;9.312;2023-02-28T05:09:07;0.80;99.90
18173;DHT22;9211;48.818;9.312;2023-02-28T05:11:37;0.80;99.90
18173;DHT22;9211;48.818;9.312;2023-02-28T05:14:06;0.80;99.90
18173;DHT22;9211;48.818;9.312;2023-02-28T05:16:34;0.70;99.90
18173;DHT22;9211;48.818;9.312;2023-02-28T05:19:02;0.80;99.90
18173;DHT22;9211;48.818;9.312;2023-02-28T05:21:30;0.80;99.90
18173;DHT22;9211;48.818;9.312;2023-02-28T05:23:59;0.80;99.90
18173;DHT22;9211;48.818;9.312;2023-02-28T05:26:27;0.80;99.90
18173;DHT22;9211;48.818;9.312;2023-02-28T05:28:54;0.80;99.90
18173;DHT22;9211;48.818;9.312;2023-02-28T05:31:22;0.80;99.90
18173;DHT22;9211;48.818;9.312;2023-02-28T05:33:50;0.90;99.90
18173;DHT22;9211;48.818;9.312;2023-02-28T05:36:18;0.90;99.90
18173;DHT22;9211;48.818;9.312;2023-02-28T05:38:46;0.80;99.90
18173;DHT22;9211;48.818;9.312;2023-02-28T05:41:14;0.90;99.90
18173;DHT22;9211;48.818;9.312;2023-02-28T05:43:41;0.90;99.90
18173;DHT22;9211;48.818;9.312;2023-02-28T05:46:10;0.90;99.90
18173;DHT22;9211;48.818;9.312;2023-02-28T05:48:38;0.80;99.90
18173;DHT22;9211;48.818;9.312;2023-02-28T05:51:08;0.90;99.90
18173;DHT22;9211;48.818;9.312;2023-02-28T05:53:36;0.90;99.90
18173;DHT22;9211;48.818;9.312;2023-02-28T05:56:04;0.90;99.90
18173;DHT22;9211;48.818;9.312;2023-02-28T05:58:31;0.90;99.90
18173;DHT22;9211;48.818;9.312;2023-02-28T06:00:58;0.90;99.90
18173;DHT22;9211;48.818;9.312;2023-02-28T06:03:25;0.90;99.90
18173;DHT22;9211;48.818;9.312;2023-02-28T06:05:52;0.90;99.90
18173;DHT22;9211;48.818;9.312;2023-02-28T06:08:21;1.00;99.90
18173;DHT22;9211;48.818;9.312;2023-02-28T06:10:48;0.90;99.90
18173;DHT22;9211;48.818;9.312;2023-02-28T06:13:15;0.90;99.90
18173;DHT22;9211;48.818;9.312;2023-02-28T06:15:42;0.90;99.90
18173;DHT22;9211;48.818;9.312;2023-02-28T06:18:09;1.00;99.90
18173;DHT22;9211;48.818;9.312;2023-02-28T06:20:35;1.00;99.90
18173;DHT22;9211;48.818;9.312;2023-02-28T06:23:02;1.00;99.90
18173;DHT22;9211;48.818;9.312;2023-02-28T06:25:31;1.00;99.90
18173;DHT22;9211;48.818;9.312;2023-02-28T06:27:58;1.00;99.90
18173;DHT22;9211;48.818;9.312;2023-02-28T06:30:25;1.10;99.90
18173;DHT22;9211;48.818;9.312;2023-02-28T06:32:54;1.00;99.90
18173;DHT22;9211;48.818;9.312;2023-02-28T06:35:22;1.00;99.90
18173;DHT22;9211;48.818;9.312;2023-02-28T06:37:49;1.10;99.90
18173;DHT22;9211;48.818;9.312;2023-02-28T06:40:16;1.20;99.90
18173;DHT22;9211;48.818;9.312;2023-02-28T06:42:44;1.10;99.90
18173;DHT22;9211;48.818;9.312;2023-02-28T06:45:12;1.10;99.90
18173;DHT22;9211;48.818;9.312;2023-02-28T06:47:40;1.20;99.90
18173;DHT22;9211;48.818;9.312;2023-02-28T06:50:08;1.10;99.90
18173;DHT22;9211;48.818;9.312;2023-02-28T06:52:35;1.20;99.90
18173;DHT22;9211;48.818;9.312;2023-02-28T06:55:03;1.20;99.90
18173;DHT22;9211;48.818;9.312;2023-02-28T06:57:31;1.20;99.90
18173;DHT22;9211;48.818;9.312;2023-02-28T07:00:00;1.20;99.90
18173;DHT22;9211;48.818;9.312;2023-02-28T07:02:28;1.20;99.90
18173;DHT22;9211;48.818;9.312;2023-02-28T07:04:55;1.30;99.90
18173;DHT22;9211;48.818;9.312;2023-02-28T07:07:22;1.30;99.90
18173;DHT22;9211;48.818;9.312;2023-02-28T07:09:49;1.30;99.90
18173;DHT22;9211;48.818;9.312;2023-02-28T07:12:16;1.40;99.90
18173;DHT22;9211;48.818;9.312;2023-02-28T07:14:43;1.40;99.90
18173;DHT22;9211;48.818;9.312;2023-02-28T07:17:11;1.40;99.90
18173;DHT22;9211;48.818;9.312;2023-02-28T07:19:39;1.40;99.90
18173;DHT22;9211;48.818;9.312;2023-02-28T07:22:06;1.40;99.90
18173;DHT22;9211;48.818;9.312;2023-02-28T07:24:33;1.50;99.90
18173;DHT22;9211;48.818;9.312;2023-02-28T07:27:00;1.50;99.90
18173;DHT22;9211;48.818;9.312;2023-02-28T07:29:27;1.60;99.90
18173;DHT22;9211;48.818;9.312;2023-02-28T07:31:54;1.60;99.90
18173;DHT22;9211;48.818;9.312;2023-02-28T07:34:22;1.60;99.90
18173;DHT22;9211;48.818;9.312;2023-02-28T07:36:52;1.60;99.90
18173;DHT22;9211;48.818;9.312;2023-02-28T07:39:20;1.60;99.90
18173;DHT22;9211;48.818;9.312;2023-02-28T07:41:47;1.70;99.90
18173;DHT22;9211;48.818;9.312;2023-02-28T07:44:14;1.60;99.90
18173;DHT22;9211;48.818;9.312;2023-02-28T07:46:41;1.80;99.90
18173;DHT22;9211;48.818;9.312;2023-02-28T07:49:08;1.80;99.90
18173;DHT22;9211;48.818;9.312;2023-02-28T07:51:36;1.80;99.90
18173;DHT22;9211;48.818;9.312;2023-02-28T07:54:04;1.70;99.90
18173;DHT22;9211;48.818;9.312;2023-02-28T07:56:30;1.70;99.90
18173;DHT22;9211;48.818;9.312;2023-02-28T07:58:57;1.70;99.90
18173;DHT22;9211;48.818;9.312;2023-02-28T08:01:25;1.70;99.90
18173;DHT22;9211;48.818;9.312;2023-02-28T08:03:52;1.70;99.90
18173;DHT22;9211;48.818;9.312;2023-02-28T08:06:22;1.70;99.90
18173;DHT22;9211;48.818;9.312;2023-02-28T08:08:50;1.70;99.90
18173;DHT22;9211;48.818;9.312;2023-02-28T08:11:18;1.80;99.90
18173;DHT22;9211;48.818;9.312;2023-02-28T08:13:45;1.80;99.90
18173;DHT22;9211;48.818;9.312;2023-02-28T08:16:13;1.80;99.90
18173;DHT22;9211;48.818;9.312;2023-02-28T08:18:43;1.90;99.90
18173;DHT22;9211;48.818;9.312;2023-02-28T08:21:10;1.90;99.90
18173;DHT22;9211;48.818;9.312;2023-02-28T08:23:37;2.00;99.90
18173;DHT22;9211;48.818;9.312;2023-02-28T08:26:05;2.00;99.90
18173;DHT22;9211;48.818;9.312;2023-02-28T08:28:32;2.00;99.90
18173;DHT22;9211;48.818;9.312;2023-02-28T08:30:59;2.00;99.90
18173;DHT22;9211;48.818;9.312;2023-02-28T08:33:27;2.00;99.90
18173;DHT22;9211;48.818;9.312;2023-02-28T08:35:55;2.10;99.90
18173;DHT22;9211;48.818;9.312;2023-02-28T08:38:22;2.10;99.90
18173;DHT22;9211;48.818;9.312;2023-02-28T08:40:49;2.20;99.90
18173;DHT22;9211;48.818;9.312;2023-02-28T08:43:18;2.20;99.90
18173;DHT22;9211;48.818;9.312;2023-02-28T08:45:44;2.20;99.90
18173;DHT22;9211;48.818;9.312;2023-02-28T08:48:11;2.20;99.90
18173;DHT22;9211;48.818;9.312;2023-02-28T08:50:39;2.30;99.90
18173;DHT22;9211;48.818;9.312;2023-02-28T08:53:09;2.20;99.90
18173;DHT22;9211;48.818;9.312;2023-02-28T08:56:03;2.30;99.90
18173;DHT22;9211;48.818;9.312;2023-02-28T08:58:39;2.30;99.90
18173;DHT22;9211;48.818;9.312;2023-02-28T09:01:24;2.40;99.90
18173;DHT22;9211;48.818;9.312;2023-02-28T09:03:53;2.40;99.90
18173;DHT22;9211;48.818;9.312;2023-02-28T09:06:36;2.40;99.90
18173;DHT22;9211;48.818;9.312;2023-02-28T09:09:18;2.50;99.90
18173;DHT22;9211;48.818;9.312;2023-02-28T09:11:49;2.60;99.90
18173;DHT22;9211;48.818;9.312;2023-02-28T09:14:23;2.60;99.90
18173;DHT22;9211;48.818;9.312;2023-02-28T09:16:59;2.70;99.90
18173;DHT22;9211;48.818;9.312;2023-02-28T09:19:52;2.70;99.90
18173;DHT22;9211;48.818;9.312;2023-02-28T09:22:25;2.70;99.90
18173;DHT22;9211;48.818;9.312;2023-02-28T09:25:11;2.80;99.90
18173;DHT22;9211;48.818;9.312;2023-02-28T09:27:52;2.90;99.90
18173;DHT22;9211;48.818;9.312;2023-02-28T09:30:25;3.00;99.90
18173;DHT22;9211;48.818;9.312;2023-02-28T09:32:56;3.10;99.90
18173;DHT22;9211;48.818;9.312;2023-02-28T09:35:29;3.20;99.90
18173;DHT22;9211;48.818;9.312;2023-02-28T09:38:11;3.10;99.90
18173;DHT22;9211;48.818;9.312;2023-02-28T09:40:48;3.30;99.90
18173;DHT22;9211;48.818;9.312;2023-02-28T09:43:28;3.30;99.90
18173;DHT22;9211;48.818;9.312;2023-02-28T09:46:27;3.40;99.90
18173;DHT22;9211;48.818;9.312;2023-02-28T09:48:59;3.40;99.90
18173;DHT22;9211;48.818;9.312;2023-02-28T09:51:45;3.50;99.90
18173;DHT22;9211;48.818;9.312;2023-02-28T09:54:18;3.50;99.90
18173;DHT22;9211;48.818;9.312;2023-02-28T09:56:55;3.60;99.90
18173;DHT22;9211;48.818;9.312;2023-02-28T09:59:53;3.50;99.90
18173;DHT22;9211;48.818;9.312;2023-02-28T10:06:13;3.60;99.90
18173;DHT22;9211;48.818;9.312;2023-02-28T10:08:55;3.70;99.90
18173;DHT22;9211;48.818;9.312;2023-02-28T10:11:32;3.70;99.90
18173;DHT22;9211;48.818;9.312;2023-02-28T10:14:19;3.80;99.90
18173;DHT22;9211;48.818;9.312;2023-02-28T10:16:57;3.80;99.90
18173;DHT22;9211;48.818;9.312;2023-02-28T10:19:56;3.90;99.90
18173;DHT22;9211;48.818;9.312;2023-02-28T10:22:40;4.10;99.90
18173;DHT22;9211;48.818;9.312;2023-02-28T10:25:27;4.10;99.90
18173;DHT22;9211;48.818;9.312;2023-02-28T10:28:16;4.10;99.90
18173;DHT22;9211;48.818;9.312;2023-02-28T10:30:51;4.20;99.90
18173;DHT22;9211;48.818;9.312;2023-02-28T10:33:37;4.10;99.90
18173;DHT22;9211;48.818;9.312;2023-02-28T10:36:15;4.20;99.90
18173;DHT22;9211;48.818;9.312;2023-02-28T10:39:36;4.20;99.90
18173;DHT22;9211;48.818;9.312;2023-02-28T10:42:21;4.20;99.90
18173;DHT22;9211;48.818;9.312;2023-02-28T10:45:11;4.30;99.90
18173;DHT22;9211;48.818;9.312;2023-02-28T10:47:53;4.50;99.90
18173;DHT22;9211;48.818;9.312;2023-02-28T10:50:43;4.60;99.90
18173;DHT22;9211;48.818;9.312;2023-02-28T10:53:29;4.80;99.90
18173;DHT22;9211;48.818;9.312;2023-02-28T10:56:03;4.80;99.90
18173;DHT22;9211;48.818;9.312;2023-02-28T10:58:47;5.00;99.90
18173;DHT22;9211;48.818;9.312;2023-02-28T11:01:24;5.10;99.90
18173;DHT22;9211;48.818;9.312;2023-02-28T11:04:33;5.30;99.90
18173;DHT22;9211;48.818;9.312;2023-02-28T11:07:19;5.50;99.90
18173;DHT22;9211;48.818;9.312;2023-02-28T11:09:52;5.60;99.90
18173;DHT22;9211;48.818;9.312;2023-02-28T11:12:36;5.70;99.90
18173;DHT22;9211;48.818;9.312;2023-02-28T11:15:26;5.80;99.90
18173;DHT22;9211;48.818;9.312;2023-02-28T11:17:59;5.80;99.90
18173;DHT22;9211;48.818;9.312;2023-02-28T11:20:35;5.80;99.90
18173;DHT22;9211;48.818;9.312;2023-02-28T11:23:04;5.80;99.90
18173;DHT22;9211;48.818;9.312;2023-02-28T11:25:45;5.80;99.90
18173;DHT22;9211;48.818;9.312;2023-02-28T11:28:26;5.90;99.90
18173;DHT22;9211;48.818;9.312;2023-02-28T11:31:17;5.90;99.90
18173;DHT22;9211;48.818;9.312;2023-02-28T11:33:49;5.90;99.90
18173;DHT22;9211;48.818;9.312;2023-02-28T11:36:28;6.00;99.90
18173;DHT22;9211;48.818;9.312;2023-02-28T11:39:10;5.90;99.90
18173;DHT22;9211;48.818;9.312;2023-02-28T11:42:02;6.00;99.90
18173;DHT22;9211;48.818;9.312;2023-02-28T11:44:56;6.10;99.90
18173;DHT22;9211;48.818;9.312;2023-02-28T11:47:34;6.10;99.90
18173;DHT22;9211;48.818;9.312;2023-02-28T11:50:34;6.10;99.90
18173;DHT22;9211;48.818;9.312;2023-02-28T11:53:20;6.30;99.90
18173;DHT22;9211;48.818;9.312;2023-02-28T11:56:09;6.30;99.90
18173;DHT22;9211;48.818;9.312;2023-02-28T11:58:59;6.30;99.90
18173;DHT22;9211;48.818;9.312;2023-02-28T12:04:56;6.50;99.90
18173;DHT22;9211;48.818;9.312;2023-02-28T12:07:47;6.60;99.90
18173;DHT22;9211;48.818;9.312;2023-02-28T12:10:41;6.60;99.90
18173;DHT22;9211;48.818;9.312;2023-02-28T12:13:21;6.70;99.90
18173;DHT22;9211;48.818;9.312;2023-02-28T12:19:33;6.70;99.90
18173;DHT22;9211;48.818;9.312;2023-02-28T12:22:32;6.80;99.90
18173;DHT22;9211;48.818;9.312;2023-02-28T12:25:43;6.80;99.90
18173;DHT22;9211;48.818;9.312;2023-02-28T12:28:26;6.80;99.90
18173;DHT22;9211;48.818;9.312;2023-02-28T12:31:19;6.90;99.90
18173;DHT22;9211;48.818;9.312;2023-02-28T12:34:01;6.90;99.90
18173;DHT22;9211;48.818;9.312;2023-02-28T12:36:34;6.90;99.90
18173;DHT22;9211;48.818;9.312;2023-02-28T12:39:24;7.00;99.90
18173;DHT22;9211;48.818;9.312;2023-02-28T12:42:03;7.00;99.90
18173;DHT22;9211;48.818;9.312;2023-02-28T12:44:46;6.90;99.90
18173;DHT22;9211;48.818;9.312;2023-02-28T12:47:20;6.80;99.90
18173;DHT22;9211;48.818;9.312;2023-02-28T12:49:52;6.80;99.90
18173;DHT22;9211;48.818;9.312;2023-02-28T12:52:35;6.70;99.90
18173;DHT22;9211;48.818;9.312;2023-02-28T12:55:17;6.60;99.90
18173;DHT22;9211;48.818;9.312;2023-02-28T12:58:19;6.60;99.90
18173;DHT22;9211;48.818;9.312;2023-02-28T13:01:21;6.60;99.90
18173;DHT22;9211;48.818;9.312;2023-02-28T13:04:16;6.60;99.90
18173;DHT22;9211;48.818;9.312;2023-02-28T13:10:17;6.50;99.90
18173;DHT22;9211;48.818;9.312;2023-02-28T13:13:06;6.60;99.90
18173;DHT22;9211;48.818;9.312;2023-02-28T13:16:03;6.60;99.90
18173;DHT22;9211;48.818;9.312;2023-02-28T13:18:43;6.60;99.90
18173;DHT22;9211;48.818;9.312;2023-02-28T13:21:32;6.60;99.90
18173;DHT22;9211;48.818;9.312;2023-02-28T13:24:39;6.60;99.90
18173;DHT22;9211;48.818;9.312;2023-02-28T13:27:41;6.60;99.90
18173;DHT22;9211;48.818;9.312;2023-02-28T13:31:04;6.70;99.90
18173;DHT22;9211;48.818;9.312;2023-02-28T13:34:04;6.70;99.90
18173;DHT22;9211;48.818;9.312;2023-02-28T13:36:32;6.70;99.90
18173;DHT22;9211;48.818;9.312;2023-02-28T13:39:00;6.70;99.90
18173;DHT22;9211;48.818;9.312;2023-02-28T13:41:46;6.80;99.90
18173;DHT22;9211;48.818;9.312;2023-02-28T13:44:17;6.80;99.90
18173;DHT22;9211;48.818;9.312;2023-02-28T13:50:15;7.10;99.90
18173;DHT22;9211;48.818;9.312;2023-02-28T13:52:55;7.20;99.90
18173;DHT22;9211;48.818;9.312;2023-02-28T13:55:30;7.40;99.90
18173;DHT22;9211;48.818;9.312;2023-02-28T13:58:24;7.50;99.90
18173;DHT22;9211;48.818;9.312;2023-02-28T14:01:30;7.60;99.90
18173;DHT22;9211;48.818;9.312;2023-02-28T14:04:23;7.80;99.90
18173;DHT22;9211;48.818;9.312;2023-02-28T14:06:55;8.00;99.90
18173;DHT22;9211;48.818;9.312;2023-02-28T14:09:25;8.00;99.90
18173;DHT22;9211;48.818;9.312;2023-02-28T14:11:54;8.10;99.90
18173;DHT22;9211;48.818;9.312;2023-02-28T14:14:54;8.20;99.90
18173;DHT22;9211;48.818;9.312;2023-02-28T14:17:24;8.30;99.90
18173;DHT22;9211;48.818;9.312;2023-02-28T14:19:52;8.40;99.90
18173;DHT22;9211;48.818;9.312;2023-02-28T14:22:43;8.40;99.90
18173;DHT22;9211;48.818;9.312;2023-02-28T14:25:20;8.50;99.90
18173;DHT22;9211;48.818;9.312;2023-02-28T14:27:58;8.50;99.70
18173;DHT22;9211;48.818;9.312;2023-02-28T14:30:43;8.60;99.30
18173;DHT22;9211;48.818;9.312;2023-02-28T14:33:22;8.60;99.50
18173;DHT22;9211;48.818;9.312;2023-02-28T14:36:03;8.70;99.90
18173;DHT22;9211;48.818;9.312;2023-02-28T14:38:33;8.80;99.60
18173;DHT22;9211;48.818;9.312;2023-02-28T14:41:05;8.80;99.50
18173;DHT22;9211;48.818;9.312;2023-02-28T14:43:33;8.80;99.10
18173;DHT22;9211;48.818;9.312;2023-02-28T14:46:02;8.80;99.20
18173;DHT22;9211;48.818;9.312;2023-02-28T14:48:33;8.80;99.50
18173;DHT22;9211;48.818;9.312;2023-02-28T14:51:01;8.80;99.10
18173;DHT22;9211;48.818;9.312;2023-02-28T14:53:30;8.80;98.70
18173;DHT22;9211;48.818;9.312;2023-02-28T14:56:01;8.80;98.30
18173;DHT22;9211;48.818;9.312;2023-02-28T14:58:30;8.70;98.40
18173;DHT22;9211;48.818;9.312;2023-02-28T15:00:59;8.60;98.20
18173;DHT22;9211;48.818;9.312;2023-02-28T15:03:32;8.60;98.50
18173;DHT22;9211;48.818;9.312;2023-02-28T15:06:00;8.50;98.60
18173;DHT22;9211;48.818;9.312;2023-02-28T15:08:29;8.50;98.80
18173;DHT22;9211;48.818;9.312;2023-02-28T15:11:02;8.50;98.80
18173;DHT22;9211;48.818;9.312;2023-02-28T15:13:38;8.40;98.80
18173;DHT22;9211;48.818;9.312;2023-02-28T15:16:09;8.40;98.70
18173;DHT22;9211;48.818;9.312;2023-02-28T15:18:44;8.40;98.90
18173;DHT22;9211;48.818;9.312;2023-02-28T15:21:14;8.30;99.10
18173;DHT22;9211;48.818;9.312;2023-02-28T15:23:44;8.20;98.90
18173;DHT22;9211;48.818;9.312;2023-02-28T15:26:14;8.20;99.00
18173;DHT22;9211;48.818;9.312;2023-02-28T15:28:42;8.10;99.20
18173;DHT22;9211;48.818;9.312;2023-02-28T15:31:21;8.00;98.90
18173;DHT22;9211;48.818;9.312;2023-02-28T15:33:56;8.00;99.20
18173;DHT22;9211;48.818;9.312;2023-02-28T15:36:26;7.90;99.30
18173;DHT22;9211;48.818;9.312;2023-02-28T15:38:54;7.90;99.10
18173;DHT22;9211;48.818;9.312;2023-02-28T15:41:25;7.90;99.10
18173;DHT22;9211;48.818;9.312;2023-02-28T15:47:00;7.70;99.40
18173;DHT22;9211;48.818;9.312;2023-02-28T15:49:33;7.70;99.70
18173;DHT22;9211;48.818;9.312;2023-02-28T15:52:01;7.60;99.90
18173;DHT22;9211;48.818;9.312;2023-02-28T15:54:30;7.50;99.70
18173;DHT22;9211;48.818;9.312;2023-02-28T15:57:04;7.50;99.90
18173;DHT22;9211;48.818;9.312;2023-02-28T15:59:35;7.50;99.90
18173;DHT22;9211;48.818;9.312;2023-02-28T16:02:15;7.40;99.90
18173;DHT22;9211;48.818;9.312;2023-02-28T16:04:59;7.30;99.90
18173;DHT22;9211;48.818;9.312;2023-02-28T16:07:27;7.40;99.90
18173;DHT22;9211;48.818;9.312;2023-02-28T16:09:54;7.20;99.90
18173;DHT22;9211;48.818;9.312;2023-02-28T16:12:26;7.20;99.90
18173;DHT22;9211;48.818;9.312;2023-02-28T16:14:54;7.20;99.90
18173;DHT22;9211;48.818;9.312;2023-02-28T16:17:24;7.20;99.90
18173;DHT22;9211;48.818;9.312;2023-02-28T16:19:52;7.10;99.90
18173;DHT22;9211;48.818;9.312;2023-02-28T16:22:20;7.00;99.90
18173;DHT22;9211;48.818;9.312;2023-02-28T16:24:47;7.00;99.90
18173;DHT22;9211;48.818;9.312;2023-02-28T16:27:18;6.90;99.90
18173;DHT22;9211;48.818;9.312;2023-02-28T16:29:47;6.90;99.90
18173;DHT22;9211;48.818;9.312;2023-02-28T16:32:15;6.90;99.90
18173;DHT22;9211;48.818;9.312;2023-02-28T16:34:43;6.80;99.90
18173;DHT22;9211;48.818;9.312;2023-02-28T16:37:12;6.80;99.90
18173;DHT22;9211;48.818;9.312;2023-02-28T16:39:41;6.60;99.90
18173;DHT22;9211;48.818;9.312;2023-02-28T16:42:22;6.50;99.90
18173;DHT22;9211;48.818;9.312;2023-02-28T16:44:51;6.60;99.90
18173;DHT22;9211;48.818;9.312;2023-02-28T16:47:18;6.40;99.90
18173;DHT22;9211;48.818;9.312;2023-02-28T16:49:45;6.30;99.90
18173;DHT22;9211;48.818;9.312;2023-02-28T16:52:13;6.30;99.90
18173;DHT22;9211;48.818;9.312;2023-02-28T16:54:42;6.20;99.90
18173;DHT22;9211;48.818;9.312;2023-02-28T16:57:18;6.00;99.90
18173;DHT22;9211;48.818;9.312;2023-02-28T16:59:46;6.10;99.90
18173;DHT22;9211;48.818;9.312;2023-02-28T17:02:14;6.00;99.90
18173;DHT22;9211;48.818;9.312;2023-02-28T17:04:41;6.00;99.90
18173;DHT22;9211;48.818;9.312;2023-02-28T17:07:11;6.00;99.90
18173;DHT22;9211;48.818;9.312;2023-02-28T17:09:39;5.90;99.90
18173;DHT22;9211;48.818;9.312;2023-02-28T17:12:07;5.90;99.90